sensor_id;sensor_type;location;lat;lon;timestamp;pressure;altitude;pressure_sealevel;temperature;humidity
15558;BME280;7880;50.110;9.372;2023-07-31T00:03:38;16.73498751805746;;;16.687;100.0
15558;BME280;7880;50.110;9.372;2023-07-31T00:08:30;16.73498751805746;;;16.687;100.0
15558;BME280;7880;50.110;9.372;2023-07-31T00:13:41;16.724902197445044;;;16.625;100.0
15558;BME280;7880;50.110;9.372;2023-07-31T00:18:40;16.664390298217768;;;16.625;100.0
15558;BME280;7880;50.110;9.372;2023-07-31T00:23:45;16.598835788015275;;;16.562;100.0
15558;BME280;7880;50.110;9.372;2023-07-31T00:28:53;16.55345192514942;;;16.5;100.0
15558;BME280;7880;50.110;9.372;2023-07-31T00:33:56;16.45259898095974;;;16.437;100.0
15558;BME280;7880;50.110;9.372;2023-07-31T00:39:01;16.34670351485256;;;16.375;100.0
15558;BME280;7880;50.110;9.372;2023-07-31T00:44:06;16.260978707723552;;;16.312;100.0
15558;BME280;7880;50.110;9.372;2023-07-31T00:49:12;16.341660876810785;;;16.25;100.0
15558;BME280;7880;50.110;9.372;2023-07-31T00:54:19;16.230722913524367;;;16.25;100.0
15558;BME280;7880;50.110;9.372;2023-07-31T00:59:23;16.25089344182634;;;16.25;100.0
15558;BME280;7880;50.110;9.372;2023-07-31T01:04:36;16.351746153185378;;;16.25;100.0
15558;BME280;7880;50.110;9.372;2023-07-31T01:09:38;16.25089344182634;;;16.25;100.0
15558;BME280;7880;50.110;9.372;2023-07-31T01:14:38;16.361831430724123;;;16.25;100.0
15558;BME280;7880;50.110;9.372;2023-07-31T01:19:44;16.28114924301044;;;16.25;100.0
15558;BME280;7880;50.110;9.372;2023-07-31T01:24:56;16.331575601600342;;;16.25;100.0
15558;BME280;7880;50.110;9.372;2023-07-31T01:30:05;16.255936074629425;;;16.25;100.0
15558;BME280;7880;50.110;9.372;2023-07-31T01:35:01;16.336618239060044;;;16.25;100.0
15558;BME280;7880;50.110;9.372;2023-07-31T01:40:06;16.28114924301044;;;16.187;100.0
15558;BME280;7880;50.110;9.372;2023-07-31T01:45:15;16.306362418667412;;;16.25;100.0
15558;BME280;7880;50.110;9.372;2023-07-31T01:50:15;16.245850809314287;;;16.187;100.0
15558;BME280;7880;50.110;9.372;2023-07-31T01:55:28;16.240808177093278;;;16.187;100.0
15558;BME280;7880;50.110;9.372;2023-07-31T02:00:27;16.371916709427023;;;16.25;100.0
15558;BME280;7880;50.110;9.372;2023-07-31T02:05:30;16.34670351485256;;;16.25;100.0
15558;BME280;7880;50.110;9.372;2023-07-31T02:10:34;16.34670351485256;;;16.312;100.0
15558;BME280;7880;50.110;9.372;2023-07-31T02:15:40;16.407215194054878;;;16.312;100.0
15558;BME280;7880;50.110;9.372;2023-07-31T02:20:49;16.42234312040382;;;16.312;100.0
15558;BME280;7880;50.110;9.372;2023-07-31T02:25:50;16.38704462966416;;;16.312;100.0
15558;BME280;7880;50.110;9.372;2023-07-31T02:30:59;16.382001989294075;;;16.312;100.0
15558;BME280;7880;50.110;9.372;2023-07-31T02:36:03;16.402172552520643;;;16.312;100.0
15558;BME280;7880;50.110;9.372;2023-07-31T02:41:09;16.366874069930056;;;16.312;100.0
15558;BME280;7880;50.110;9.372;2023-07-31T02:46:14;16.351746153185378;;;16.25;100.0
15558;BME280;7880;50.110;9.372;2023-07-31T02:51:23;16.38704462966416;;;16.312;100.0
15558;BME280;7880;50.110;9.372;2023-07-31T02:56:25;16.392087270325284;;;16.312;100.0
15558;BME280;7880;50.110;9.372;2023-07-31T03:01:33;16.34670351485256;;;16.312;100.0
15558;BME280;7880;50.110;9.372;2023-07-31T03:06:40;16.382001989294075;;;16.312;100.0
15558;BME280;7880;50.110;9.372;2023-07-31T03:11:48;16.301319782953943;;;16.25;100.0
15558;BME280;7880;50.110;9.372;2023-07-31T03:16:51;16.316447690967472;;;16.25;100.0
15558;BME280;7880;50.110;9.372;2023-07-31T03:21:56;16.34670351485256;;;16.25;100.0
15558;BME280;7880;50.110;9.372;2023-07-31T03:27:06;16.382001989294075;;;16.25;100.0
15558;BME280;7880;50.110;9.372;2023-07-31T03:32:15;16.351746153185378;;;16.25;100.0
15558;BME280;7880;50.110;9.372;2023-07-31T03:35:58;16.301319782953943;;;16.25;100.0
15558;BME280;7880;50.110;9.372;2023-07-31T03:41:06;16.276106608752162;;;16.187;100.0
15558;BME280;7880;50.110;9.372;2023-07-31T03:46:09;16.276106608752162;;;16.187;100.0
15558;BME280;7880;50.110;9.372;2023-07-31T03:51:18;16.255936074629425;;;16.187;100.0
15558;BME280;7880;50.110;9.372;2023-07-31T03:56:20;16.200467129802565;;;16.187;100.0
15558;BME280;7880;50.110;9.372;2023-07-31T04:01:31;16.08448672259692;;;16.062;100.0
15558;BME280;7880;50.110;9.372;2023-07-31T04:06:32;16.034060506615788;;;16.0;100.0
15558;BME280;7880;50.110;9.372;2023-07-31T04:11:35;15.907995093992213;;;15.875;100.0
15558;BME280;7880;50.110;9.372;2023-07-31T04:16:41;15.918080320308217;;;15.875;100.0
15558;BME280;7880;50.110;9.372;2023-07-31T04:21:46;15.83235593372956;;;15.875;100.0
15558;BME280;7880;50.110;9.372;2023-07-31T04:26:53;15.88278203329537;;;15.875;100.0
15558;BME280;7880;50.110;9.372;2023-07-31T04:31:58;15.887824644852662;;;15.875;100.0
15558;BME280;7880;50.110;9.372;2023-07-31T04:37:27;15.892867256700992;;;15.875;100.0
15558;BME280;7880;50.110;9.372;2023-07-31T04:42:31;15.928165547788376;;;15.875;100.0
15558;BME280;7880;50.110;9.372;2023-07-31T04:47:36;15.862611589976586;;;15.812;100.0
15558;BME280;7880;50.110;9.372;2023-07-31T04:53:20;15.877739422029117;;;15.875;100.0
15558;BME280;7880;50.110;9.372;2023-07-31T04:58:35;15.887824644852662;;;15.812;100.0
15558;BME280;7880;50.110;9.372;2023-07-31T05:03:30;15.897909868840362;;;15.875;100.0
15558;BME280;7880;50.110;9.372;2023-07-31T05:08:35;15.953378621581942;;;15.812;100.0
15558;BME280;7880;50.110;9.372;2023-07-31T05:13:50;15.877739422029117;;;15.812;100.0
15558;BME280;7880;50.110;9.372;2023-07-31T05:18:50;15.862611589976586;;;15.812;100.0
15558;BME280;7880;50.110;9.372;2023-07-31T05:23:55;15.842441151314414;;;15.812;100.0
15558;BME280;7880;50.110;9.372;2023-07-31T05:28:59;15.842441151314414;;;15.812;100.0
15558;BME280;7880;50.110;9.372;2023-07-31T05:34:05;15.847483760543401;;;15.812;100.0
15558;BME280;7880;50.110;9.372;2023-07-31T05:39:13;15.862611589976586;;;15.812;100.0
15558;BME280;7880;50.110;9.372;2023-07-31T05:44:16;15.877739422029117;;;15.812;100.0
15558;BME280;7880;50.110;9.372;2023-07-31T05:49:28;15.902952481270768;;;15.812;100.0
15558;BME280;7880;50.110;9.372;2023-07-31T05:54:32;15.88278203329537;;;15.812;100.0
15558;BME280;7880;50.110;9.372;2023-07-31T05:59:33;15.872696811053903;;;15.812;100.0
15558;BME280;7880;50.110;9.372;2023-07-31T06:04:36;15.852526370063424;;;15.75;100.0
15558;BME280;7880;50.110;9.372;2023-07-31T06:09:41;15.887824644852662;;;15.812;100.0
15558;BME280;7880;50.110;9.372;2023-07-31T06:14:49;15.877739422029117;;;15.75;100.0
15558;BME280;7880;50.110;9.372;2023-07-31T06:19:52;15.827313325373689;;;15.75;100.0
15558;BME280;7880;50.110;9.372;2023-07-31T06:24:56;15.852526370063424;;;15.75;100.0
15558;BME280;7880;50.110;9.372;2023-07-31T06:30:02;15.988676937116542;;;15.812;100.0
15558;BME280;7880;50.110;9.372;2023-07-31T06:35:11;15.9432933911914;;;15.812;100.0
15558;BME280;7880;50.110;9.372;2023-07-31T06:40:14;15.95842123721377;;;15.875;100.0
15558;BME280;7880;50.110;9.372;2023-07-31T06:45:17;15.96850646935054;;;15.812;100.0
15558;BME280;7880;50.110;9.372;2023-07-31T06:50:22;16.11474246615544;;;15.875;100.0
15558;BME280;7880;50.110;9.372;2023-07-31T06:55:28;16.361831430724123;;;16.062;100.0
15558;BME280;7880;50.110;9.372;2023-07-31T07:00:33;16.215595020353796;;;16.125;100.0
15558;BME280;7880;50.110;9.372;2023-07-31T07:05:37;16.220637651119613;;;16.125;100.0
15558;BME280;7880;50.110;9.372;2023-07-31T07:15:59;16.462684270140016;;;16.25;100.0
15558;BME280;7880;50.110;9.372;2023-07-31T07:21:05;16.43242840609164;;;16.25;100.0
15558;BME280;7880;50.110;9.372;2023-07-31T07:26:11;16.593793135421585;;;16.375;100.0
15558;BME280;7880;50.110;9.372;2023-07-31T07:31:16;16.64926232995931;;;16.5;100.0
15558;BME280;7880;50.110;9.372;2023-07-31T07:36:21;16.74507283983403;;;16.562;100.0
15558;BME280;7880;50.110;9.372;2023-07-31T07:41:26;16.951822192803956;;;16.625;100.0
15558;BME280;7880;50.110;9.372;2023-07-31T07:46:32;17.17370009145234;;;16.875;100.0
15558;BME280;7880;50.110;9.372;2023-07-31T07:51:37;17.19891352467821;;;16.937;100.0
15558;BME280;7880;50.110;9.372;2023-07-31T07:56:43;17.410706651030342;;;17.062;100.0
15558;BME280;7880;50.110;9.372;2023-07-31T08:01:52;17.23421234341804;;;17.062;100.0
15558;BME280;7880;50.110;9.372;2023-07-31T08:06:52;17.2543831033865;;;17.0;100.0
15558;BME280;7880;50.110;9.372;2023-07-31T08:12:02;17.4813044739014;;;17.187;100.0
15558;BME280;7880;50.110;9.372;2023-07-31T08:17:02;17.83429444390931;;;17.437;100.0
15558;BME280;7880;50.110;9.372;2023-07-31T08:22:12;17.70318371714675;;;17.5;100.0
15558;BME280;7880;50.110;9.372;2023-07-31T08:27:13;18.06626005783328;;;17.625;100.0
15558;BME280;7880;50.110;9.372;2023-07-31T08:33:15;18.298226287594296;;;18.0;100.0
15558;BME280;7880;50.110;9.372;2023-07-31T08:38:21;18.025918167695636;;;17.875;100.0
15558;BME280;7880;50.110;9.372;2023-07-31T08:42:13;18.141901152045467;;;17.812;100.0
15558;BME280;7880;50.110;9.372;2023-07-31T08:47:21;18.7772889287211;;;18.187;100.0
15558;BME280;7880;50.110;9.372;2023-07-31T08:52:24;18.45959446281777;;;18.312;100.0
15558;BME280;7880;50.110;9.372;2023-07-31T08:57:29;18.641134016175055;;;18.312;100.0
15558;BME280;7880;50.110;9.372;2023-07-31T09:02:38;19.009257046156563;;;18.562;100.0
15558;BME280;7880;50.110;9.372;2023-07-31T09:07:47;18.93361520106555;;;18.562;100.0
15558;BME280;7880;50.110;9.372;2023-07-31T09:12:43;18.832759509474272;;;18.5;100.0
15558;BME280;7880;50.110;9.372;2023-07-31T09:17:59;19.01934263044968;;;18.75;100.0
15558;BME280;7880;50.110;9.372;2023-07-31T09:23:10;18.989085881062785;;;18.75;100.0
15558;BME280;7880;50.110;9.372;2023-07-31T09:28:00;18.963871931243922;;;18.687;100.0
15558;BME280;7880;50.110;9.372;2023-07-31T09:33:05;19.084898956731195;;;18.75;100.0
15558;BME280;7880;50.110;9.372;2023-07-31T09:38:10;19.2563541964686;;;18.875;100.0
15558;BME280;7880;50.110;9.372;2023-07-31T09:43:18;19.599265685264253;;;19.187;100.0
15558;BME280;7880;50.110;9.372;2023-07-31T09:48:19;19.21601175685064;;;19.125;100.0
15558;BME280;7880;50.110;9.372;2023-07-31T09:53:28;19.01934263044968;;;18.875;100.0
15558;BME280;7880;50.110;9.372;2023-07-31T09:58:34;18.883187340717996;;;18.75;100.0
15558;BME280;7880;50.110;9.372;2023-07-31T10:03:36;18.419252391072224;;;18.5;100.0
15558;BME280;7880;50.110;9.372;2023-07-31T10:08:44;18.4142096334137;;;18.312;100.0
15558;BME280;7880;50.110;9.372;2023-07-31T10:16:45;18.358739318378504;;;18.25;100.0
15558;BME280;7880;50.110;9.372;2023-07-31T10:21:50;18.620962936064462;;;18.375;100.0
15558;BME280;7880;50.110;9.372;2023-07-31T10:27:05;18.28309803644661;;;18.25;100.0
15558;BME280;7880;50.110;9.372;2023-07-31T10:32:00;18.47976550567546;;;18.125;100.0
15558;BME280;7880;50.110;9.372;2023-07-31T10:37:22;18.832759509474272;;;18.375;100.0
15558;BME280;7880;50.110;9.372;2023-07-31T10:42:11;18.731903934298316;;;18.562;100.0
15558;BME280;7880;50.110;9.372;2023-07-31T10:47:30;18.631048475537682;;;18.375;100.0
15558;BME280;7880;50.110;9.372;2023-07-31T10:52:34;18.70669005869422;;;18.437;100.0
15558;BME280;7880;50.110;9.372;2023-07-31T10:57:35;19.14036973277107;;;18.687;100.0
15558;BME280;7880;50.110;9.372;2023-07-31T11:02:33;19.362253189086914;;;18.875;100.0
15558;BME280;7880;50.110;9.372;2023-07-31T11:07:55;19.49840922533185;;;19.062;100.0
15558;BME280;7880;50.110;9.372;2023-07-31T11:12:40;19.362253189086914;;;19.125;100.0
15558;BME280;7880;50.110;9.372;2023-07-31T11:17:45;19.488323585741455;;;19.187;100.0
15558;BME280;7880;50.110;9.372;2023-07-31T11:22:59;19.629522645944963;;;19.375;100.0
15558;BME280;7880;50.110;9.372;2023-07-31T11:27:54;19.972435599245365;;;19.5;100.0
15558;BME280;7880;50.110;9.372;2023-07-31T11:32:58;19.528666151087965;;;19.375;100.0
15558;BME280;7880;50.110;9.372;2023-07-31T11:38:02;19.740464924747357;;;19.437;100.0
15558;BME280;7880;50.110;9.372;2023-07-31T11:43:07;20.098506876290777;;;19.687;100.0
15558;BME280;7880;50.110;9.372;2023-07-31T11:48:18;20.027906938735395;;;19.625;100.0
15558;BME280;7880;50.110;9.372;2023-07-31T11:53:24;20.113635441759833;;;19.687;100.0
15558;BME280;7880;50.110;9.372;2023-07-31T11:58:30;20.068249753210694;;;19.812;100.0
15558;BME280;7880;50.110;9.372;2023-07-31T12:03:26;19.755593428225257;;;19.625;100.0
15558;BME280;7880;50.110;9.372;2023-07-31T12:08:32;19.558923087321453;;;19.437;100.0
15558;BME280;7880;50.110;9.372;2023-07-31T12:13:40;19.548837440746137;;;19.437;100.0
15558;BME280;7880;50.110;9.372;2023-07-31T12:18:43;19.614394164294936;;;19.375;100.0
15558;BME280;7880;50.110;9.372;2023-07-31T12:23:51;19.644651130214335;;;19.437;100.0
15558;BME280;7880;50.110;9.372;2023-07-31T12:28:56;19.79593611697201;;;19.5;100.0
15558;BME280;7880;50.110;9.372;2023-07-31T12:33:59;19.669865276484053;;;19.437;100.0
15558;BME280;7880;50.110;9.372;2023-07-31T12:39:04;19.755593428225257;;;19.5;100.0
15558;BME280;7880;50.110;9.372;2023-07-31T12:44:07;19.750550593441584;;;19.562;100.0
15558;BME280;7880;50.110;9.372;2023-07-31T12:49:10;19.740464924747357;;;19.5;100.0
15558;BME280;7880;50.110;9.372;2023-07-31T12:54:15;19.8161074683303;;;19.625;100.0
15558;BME280;7880;50.110;9.372;2023-07-31T12:59:17;19.85645018501673;;;19.625;100.0
15558;BME280;7880;50.110;9.372;2023-07-31T13:04:23;19.493366405391136;;;19.437;100.0
15558;BME280;7880;50.110;9.372;2023-07-31T13:09:29;19.558923087321453;;;19.375;100.0
15558;BME280;7880;50.110;9.372;2023-07-31T13:14:34;19.5084948660864;;;19.375;100.0
15558;BME280;7880;50.110;9.372;2023-07-31T13:19:38;19.432852588803506;;;19.312;100.0
15558;BME280;7880;50.110;9.372;2023-07-31T13:24:43;19.720293590851362;;;19.437;100.0
15558;BME280;7880;50.110;9.372;2023-07-31T13:29:51;19.609351337660335;;;19.437;100.0
15558;BME280;7880;50.110;9.372;2023-07-31T13:34:53;19.690036598738516;;;19.437;100.0
15558;BME280;7880;50.110;9.372;2023-07-31T13:40:01;19.473195128538645;;;19.375;100.0
15558;BME280;7880;50.110;9.372;2023-07-31T13:45:05;19.604308511316777;;;19.375;100.0
15558;BME280;7880;50.110;9.372;2023-07-31T13:50:22;19.679950937029208;;;19.375;100.0
15558;BME280;7880;50.110;9.372;2023-07-31T13:55:30;19.8161074683303;;;19.5;100.0
15558;BME280;7880;50.110;9.372;2023-07-31T14:01:13;19.81106463005417;;;19.562;100.0
15558;BME280;7880;50.110;9.372;2023-07-31T14:06:17;19.700122261611977;;;19.5;100.0
15558;BME280;7880;50.110;9.372;2023-07-31T14:11:23;19.584137208852916;;;19.437;100.0
15558;BME280;7880;50.110;9.372;2023-07-31T14:16:34;19.609351337660335;;;19.437;100.0
15558;BME280;7880;50.110;9.372;2023-07-31T14:21:39;19.78080760650919;;;19.5;100.0
15558;BME280;7880;50.110;9.372;2023-07-31T14:26:45;19.881664392404492;;;19.625;100.0
15558;BME280;7880;50.110;9.372;2023-07-31T14:31:49;20.133806866459782;;;19.75;100.0
15558;BME280;7880;50.110;9.372;2023-07-31T14:36:55;19.947221365664156;;;19.75;100.0
15558;BME280;7880;50.110;9.372;2023-07-31T14:41:59;19.881664392404492;;;19.687;100.0
15558;BME280;7880;50.110;9.372;2023-07-31T14:47:17;20.07329260632978;;;19.687;100.0
15558;BME280;7880;50.110;9.372;2023-07-31T14:52:09;19.972435599245365;;;19.75;100.0
15558;BME280;7880;50.110;9.372;2023-07-31T14:57:14;19.90183576355339;;;19.687;100.0
15558;BME280;7880;50.110;9.372;2023-07-31T15:02:29;19.690036598738516;;;19.625;100.0
15558;BME280;7880;50.110;9.372;2023-07-31T15:07:25;19.654736787849107;;;19.5;100.0
15558;BME280;7880;50.110;9.372;2023-07-31T15:12:31;19.644651130214335;;;19.5;100.0
15558;BME280;7880;50.110;9.372;2023-07-31T15:17:43;19.679950937029208;;;19.5;100.0
15558;BME280;7880;50.110;9.372;2023-07-31T15:22:41;19.54379461789504;;;19.437;100.0
15558;BME280;7880;50.110;9.372;2023-07-31T15:27:46;19.437895405251766;;;19.312;100.0
15558;BME280;7880;50.110;9.372;2023-07-31T15:32:52;19.417724141204964;;;19.312;100.0
15558;BME280;7880;50.110;9.372;2023-07-31T15:37:57;19.377381627081196;;;19.25;100.0
15558;BME280;7880;50.110;9.372;2023-07-31T15:43:03;19.422766956780105;;;19.25;100.0
15558;BME280;7880;50.110;9.372;2023-07-31T15:48:07;19.34208194250241;;;19.25;100.0
15558;BME280;7880;50.110;9.372;2023-07-31T15:53:12;19.387467253865907;;;19.25;100.0
15558;BME280;7880;50.110;9.372;2023-07-31T15:58:17;19.331996320956385;;;19.25;100.0
15558;BME280;7880;50.110;9.372;2023-07-31T16:03:34;19.079856160655616;;;19.062;100.0
15558;BME280;7880;50.110;9.372;2023-07-31T16:08:26;18.7772889287211;;;18.75;100.0
15558;BME280;7880;50.110;9.372;2023-07-31T16:13:31;18.731903934298316;;;18.687;100.0
15558;BME280;7880;50.110;9.372;2023-07-31T16:18:37;18.520107605360682;;;18.5;100.0
15558;BME280;7880;50.110;9.372;2023-07-31T16:23:41;18.318397293199087;;;18.25;100.0
15558;BME280;7880;50.110;9.372;2023-07-31T16:28:46;17.814123550063233;;;17.875;100.0
15558;BME280;7880;50.110;9.372;2023-07-31T16:33:55;17.824208996404195;;;17.812;100.0
15558;BME280;7880;50.110;9.372;2023-07-31T16:39:03;17.824208996404195;;;17.812;100.0
15558;BME280;7880;50.110;9.372;2023-07-31T16:44:02;17.894807153387227;;;17.75;100.0
15558;BME280;7880;50.110;9.372;2023-07-31T16:49:06;18.036003638483816;;;17.937;100.0
15558;BME280;7880;50.110;9.372;2023-07-31T16:54:11;18.076345533278072;;;18.062;100.0
15558;BME280;7880;50.110;9.372;2023-07-31T16:59:16;18.16711486466811;;;18.062;100.0
15558;BME280;7880;50.110;9.372;2023-07-31T17:04:20;18.11668744669878;;;18.0;100.0
15558;BME280;7880;50.110;9.372;2023-07-31T17:09:27;18.051131846848875;;;18.0;100.0
15558;BME280;7880;50.110;9.372;2023-07-31T17:14:31;18.26292703899089;;;18.125;100.0
15558;BME280;7880;50.110;9.372;2023-07-31T17:19:36;18.348653810337417;;;18.187;100.0
15558;BME280;7880;50.110;9.372;2023-07-31T17:24:48;18.36882482758374;;;18.25;100.0
15558;BME280;7880;50.110;9.372;2023-07-31T17:29:47;18.36882482758374;;;18.312;100.0
15558;BME280;7880;50.110;9.372;2023-07-31T17:34:55;18.343611056753435;;;18.25;100.0
15558;BME280;7880;50.110;9.372;2023-07-31T17:39:58;18.3637820728356;;;18.312;100.0
15558;BME280;7880;50.110;9.372;2023-07-31T17:45:06;18.358739318378504;;;18.25;100.0
15558;BME280;7880;50.110;9.372;2023-07-31T17:50:11;18.25788429035456;;;18.25;100.0
15558;BME280;7880;50.110;9.372;2023-07-31T17:55:29;18.212499565724283;;;18.187;100.0
15558;BME280;7880;50.110;9.372;2023-07-31T18:00:23;18.197371329419546;;;18.125;100.0
15558;BME280;7880;50.110;9.372;2023-07-31T18:05:27;18.01583269807161;;;18.062;100.0
15558;BME280;7880;50.110;9.372;2023-07-31T18:10:34;18.03096090294421;;;18.062;100.0
15558;BME280;7880;50.110;9.372;2023-07-31T18:15:37;17.64771385351196;;;17.812;100.0
15558;BME280;7880;50.110;9.372;2023-07-31T18:20:43;17.672927423525834;;;17.75;100.0
15558;BME280;7880;50.110;9.372;2023-07-31T18:25:48;17.642671140382298;;;17.75;100.0
15558;BME280;7880;50.110;9.372;2023-07-31T18:30:57;17.249340412957828;;;17.562;100.0
15558;BME280;7880;50.110;9.372;2023-07-31T18:36:02;17.40062125241966;;;17.75;100.0
15558;BME280;7880;50.110;9.372;2023-07-31T18:41:05;17.350194276828553;;;17.75;100.0
15558;BME280;7880;50.110;9.372;2023-07-31T18:46:08;17.25942579410621;;;17.687;100.0
15558;BME280;7880;50.110;9.372;2023-07-31T18:51:12;17.037547677761175;;;17.562;100.0
15558;BME280;7880;50.110;9.372;2023-07-31T18:56:32;17.0072916146426;;;17.562;100.0
15558;BME280;7880;50.110;9.372;2023-07-31T19:01:50;17.2039562121965;;;17.75;100.0
15558;BME280;7880;50.110;9.372;2023-07-31T19:06:52;17.19891352467821;;;17.687;100.0
15558;BME280;7880;50.110;9.372;2023-07-31T19:11:56;17.34515158087015;;;17.687;100.0
15558;BME280;7880;50.110;9.372;2023-07-31T19:17:01;17.16865740568028;;;17.687;100.0
15558;BME280;7880;50.110;9.372;2023-07-31T19:22:06;17.133358613424935;;;17.625;100.0
15558;BME280;7880;50.110;9.372;2023-07-31T19:27:12;16.946779519837584;;;17.25;100.0
15558;BME280;7880;50.110;9.372;2023-07-31T19:32:20;17.067803751357133;;;17.375;100.0
15558;BME280;7880;50.110;9.372;2023-07-31T19:37:21;17.027462322224164;;;17.312;100.0
15558;BME280;7880;50.110;9.372;2023-07-31T19:43:06;16.82071279026568;;;17.0;100.0
15558;BME280;7880;50.110;9.372;2023-07-31T19:48:11;17.12831592998118;;;17.125;100.0
15558;BME280;7880;50.110;9.372;2023-07-31T19:53:17;17.027462322224164;;;17.187;100.0
15558;BME280;7880;50.110;9.372;2023-07-31T19:58:23;17.143443981185555;;;17.187;100.0
15558;BME280;7880;50.110;9.372;2023-07-31T20:03:30;16.941736847162247;;;17.0;100.0
15558;BME280;7880;50.110;9.372;2023-07-31T20:08:32;17.067803751357133;;;17.062;100.0
15558;BME280;7880;50.110;9.372;2023-07-31T20:13:38;17.037547677761175;;;17.062;100.0
15558;BME280;7880;50.110;9.372;2023-07-31T20:18:45;16.90139547623694;;;16.937;100.0
15558;BME280;7880;50.110;9.372;2023-07-31T20:23:48;16.92660883088247;;;16.937;100.0
15558;BME280;7880;50.110;9.372;2023-07-31T20:28:54;16.82071279026568;;;16.812;100.0
15558;BME280;7880;50.110;9.372;2023-07-31T20:33:59;16.795499466179173;;;16.75;100.0
15558;BME280;7880;50.110;9.372;2023-07-31T20:39:05;17.017376967851305;;;16.875;100.0
15558;BME280;7880;50.110;9.372;2023-07-31T20:44:09;16.987120911717646;;;17.0;100.0
15558;BME280;7880;50.110;9.372;2023-07-31T20:49:14;17.017376967851305;;;16.937;100.0
15558;BME280;7880;50.110;9.372;2023-07-31T20:54:20;17.047633034462343;;;17.0;100.0
15558;BME280;7880;50.110;9.372;2023-07-31T20:59:25;16.99720626259805;;;17.0;100.0
15558;BME280;7880;50.110;9.372;2023-07-31T21:04:31;16.916523488151142;;;16.875;100.0
15558;BME280;7880;50.110;9.372;2023-07-31T21:09:37;16.8156701248663;;;16.875;100.0
15558;BME280;7880;50.110;9.372;2023-07-31T21:14:57;16.724902197445044;;;16.812;100.0
15558;BME280;7880;50.110;9.372;2023-07-31T21:19:59;16.669432954886;;;16.625;100.0
15558;BME280;7880;50.110;9.372;2023-07-31T21:24:51;16.51311073350371;;;16.437;100.0
15558;BME280;7880;50.110;9.372;2023-07-31T21:29:59;16.351746153185378;;;16.375;100.0
15558;BME280;7880;50.110;9.372;2023-07-31T21:35:05;16.165168728702703;;;16.187;100.0
15558;BME280;7880;50.110;9.372;2023-07-31T21:40:08;16.008847409539158;;;16.187;100.0
15558;BME280;7880;50.110;9.372;2023-07-31T21:45:17;16.25089344182634;;;16.25;100.0
15558;BME280;7880;50.110;9.372;2023-07-31T21:50:19;16.02397526691202;;;16.187;100.0
15558;BME280;7880;50.110;9.372;2023-07-31T21:55:25;15.877739422029117;;;16.187;100.0
15558;BME280;7880;50.110;9.372;2023-07-31T22:00:31;16.119785091100493;;;16.312;100.0
15558;BME280;7880;50.110;9.372;2023-07-31T22:05:37;16.03910312690423;;;16.125;100.0
15558;BME280;7880;50.110;9.372;2023-07-31T22:10:42;16.15508347386494;;;16.25;100.0
15558;BME280;7880;50.110;9.372;2023-07-31T22:16:04;16.124827716336586;;;16.25;100.0
15558;BME280;7880;50.110;9.372;2023-07-31T22:20:51;16.049188368354226;;;16.187;100.0
15558;BME280;7880;50.110;9.372;2023-07-31T22:25:56;15.847483760543401;;;15.937;100.0
15558;BME280;7880;50.110;9.372;2023-07-31T22:31:01;15.897909868840362;;;15.937;100.0
15558;BME280;7880;50.110;9.372;2023-07-31T22:36:06;15.918080320308217;;;15.937;100.0
15558;BME280;7880;50.110;9.372;2023-07-31T22:41:10;16.069358854746678;;;16.0;100.0
15558;BME280;7880;50.110;9.372;2023-07-31T22:46:16;15.76680204780423;;;15.937;100.0
15558;BME280;7880;50.110;9.372;2023-07-31T22:51:21;15.746631631260971;;;15.875;100.0
15558;BME280;7880;50.110;9.372;2023-07-31T22:56:26;15.867654200369724;;;15.937;100.0
15558;BME280;7880;50.110;9.372;2023-07-31T23:01:31;15.897909868840362;;;16.062;100.0
15558;BME280;7880;50.110;9.372;2023-07-31T23:06:40;15.862611589976586;;;15.937;100.0
15558;BME280;7880;50.110;9.372;2023-07-31T23:11:44;15.897909868840362;;;15.875;100.0
15558;BME280;7880;50.110;9.372;2023-07-31T23:16:49;15.842441151314414;;;15.875;100.0
15558;BME280;7880;50.110;9.372;2023-07-31T23:21:57;15.892867256700992;;;15.875;100.0
15558;BME280;7880;50.110;9.372;2023-07-31T23:27:00;15.988676937116542;;;16.125;100.0
15558;BME280;7880;50.110;9.372;2023-07-31T23:32:05;15.892867256700992;;;16.0;100.0
15558;BME280;7880;50.110;9.372;2023-07-31T23:37:10;16.094571969285607;;;16.125;100.0
15558;BME280;7880;50.110;9.372;2023-07-31T23:42:15;16.02397526691202;;;16.125;100.0
15558;BME280;7880;50.110;9.372;2023-07-31T23:47:24;15.887824644852662;;;15.937;100.0
15558;BME280;7880;50.110;9.372;2023-07-31T23:52:30;15.887824644852662;;;15.812;100.0
15558;BME280;7880;50.110;9.372;2023-07-31T23:57:32;15.847483760543401;;;15.875;100.0
